Time;durP1;ratioP1;P1;durP2;ratioP2;P2;SDS_P1;SDS_P2;PMS_P1;PMS_P2;Temp;Humidity;BMP_temperature;BMP_pressure;BME280_temperature;BME280_humidity;BME280_pressure;Samples;Min_cycle;Max_cycle;Signal;HPM_P1;HPM_P2
2021/03/28 00:02:38;;;;;;;3.17;1.73;;;6.90;99.90;;;;;;5012537;28;20273;-70
2021/03/28 00:05:07;;;;;;;3.90;1.70;;;6.80;99.90;;;;;;5004493;28;20742;-69
2021/03/28 00:07:48;;;;;;;3.77;1.83;;;6.90;99.90;;;;;;5007576;28;20183;-69
2021/03/28 00:10:40;;;;;;;4.17;1.60;;;6.80;99.90;;;;;;5011075;28;20176;-69
2021/03/28 00:13:26;;;;;;;5.77;2.63;;;6.90;99.90;;;;;;5012209;28;20183;-69
2021/03/28 00:15:55;;;;;;;5.17;2.63;;;6.90;99.90;;;;;;5010110;28;20219;-71
2021/03/28 00:18:36;;;;;;;6.57;3.23;;;7.00;99.90;;;;;;5012317;28;20181;-70
2021/03/28 00:21:20;;;;;;;3.63;2.70;;;7.00;99.90;;;;;;5012184;28;20205;-70
2021/03/28 00:24:15;;;;;;;5.40;2.90;;;6.90;99.90;;;;;;5012365;28;20719;-70
2021/03/28 00:27:06;;;;;;;4.40;2.43;;;6.90;99.90;;;;;;5011003;28;20334;-70
2021/03/28 00:29:46;;;;;;;3.50;2.20;;;7.00;99.90;;;;;;5012463;28;20179;-70
2021/03/28 00:32:18;;;;;;;5.13;2.67;;;7.00;99.90;;;;;;5012274;28;20179;-69
2021/03/28 00:34:48;;;;;;;5.90;2.00;;;7.00;99.90;;;;;;5012549;28;20199;-70
2021/03/28 00:37:17;;;;;;;5.90;2.43;;;7.00;99.90;;;;;;5012099;28;20179;-69
2021/03/28 00:39:56;;;;;;;3.70;1.80;;;7.00;99.90;;;;;;5014321;28;20183;-70
2021/03/28 00:42:33;;;;;;;3.23;1.83;;;7.00;99.90;;;;;;5017793;28;20180;-70
2021/03/28 00:45:29;;;;;;;7.23;2.43;;;7.00;99.90;;;;;;5015859;28;20571;-70
2021/03/28 00:48:04;;;;;;;3.63;1.83;;;6.90;99.90;;;;;;5015893;28;20676;-71
2021/03/28 00:50:44;;;;;;;6.27;1.80;;;6.90;99.90;;;;;;5015807;28;20210;-70
2021/03/28 00:53:28;;;;;;;4.67;2.00;;;6.90;99.90;;;;;;5014530;28;20183;-71
2021/03/28 00:56:04;;;;;;;3.53;2.00;;;6.90;99.90;;;;;;4999530;28;20207;-71
2021/03/28 00:58:48;;;;;;;3.93;1.87;;;6.90;99.90;;;;;;5014419;28;20179;-70
2021/03/28 01:01:33;;;;;;;4.17;1.93;;;6.90;99.90;;;;;;5013572;28;20179;-72
2021/03/28 01:04:42;;;;;;;5.73;2.20;;;6.90;99.90;;;;;;5014888;28;20210;-70
2021/03/28 01:07:18;;;;;;;4.80;2.30;;;6.80;99.90;;;;;;5008865;28;20195;-70
2021/03/28 01:10:33;;;;;;;4.67;2.27;;;6.80;99.90;;;;;;5008847;28;20191;-71
2021/03/28 01:13:36;;;;;;;3.00;1.77;;;6.70;99.90;;;;;;5014812;28;20175;-70
2021/03/28 01:16:40;;;;;;;4.30;1.97;;;6.70;99.90;;;;;;5015219;28;20222;-70
2021/03/28 01:19:28;;;;;;;4.70;1.73;;;6.60;99.90;;;;;;5015176;28;20191;-70
2021/03/28 01:22:02;;;;;;;3.10;2.00;;;6.60;99.90;;;;;;5014210;28;20198;-69
2021/03/28 01:24:51;;;;;;;4.73;2.00;;;6.50;99.90;;;;;;5015064;28;20548;-70
2021/03/28 01:27:29;;;;;;;2.50;1.67;;;6.60;99.90;;;;;;5015099;28;20192;-70
2021/03/28 01:30:07;;;;;;;4.33;1.57;;;6.60;99.90;;;;;;5015086;28;20175;-69
2021/03/28 01:32:41;;;;;;;4.63;2.30;;;6.50;99.90;;;;;;5014989;28;20187;-71
2021/03/28 01:35:20;;;;;;;4.83;1.93;;;6.50;99.90;;;;;;5014977;28;20202;-70
2021/03/28 01:38:02;;;;;;;3.97;2.10;;;6.40;99.90;;;;;;5013231;28;20180;-70
2021/03/28 01:40:41;;;;;;;4.07;2.20;;;6.50;99.90;;;;;;5014989;28;20183;-70
2021/03/28 01:43:27;;;;;;;5.40;2.17;;;6.30;99.90;;;;;;5013571;28;20175;-69
2021/03/28 01:46:06;;;;;;;4.80;2.47;;;6.30;99.90;;;;;;5014733;28;20210;-71
2021/03/28 01:48:49;;;;;;;5.93;2.30;;;6.20;99.90;;;;;;5008497;28;20202;-70
2021/03/28 01:51:54;;;;;;;3.13;2.10;;;6.10;99.90;;;;;;4994438;28;20175;-70
2021/03/28 01:54:31;;;;;;;3.67;2.20;;;6.00;99.90;;;;;;5012674;28;20189;-71
2021/03/28 01:57:32;;;;;;;6.60;2.00;;;6.00;99.90;;;;;;5014529;28;20193;-71
2021/03/28 01:59:58;;;;;;;4.70;2.03;;;6.00;99.90;;;;;;5014524;28;20179;-70
2021/03/28 02:02:50;;;;;;;2.87;1.90;;;6.10;99.90;;;;;;5014531;28;20633;-71
2021/03/28 02:05:44;;;;;;;5.17;2.20;;;6.00;99.90;;;;;;5013547;28;20191;-71
2021/03/28 02:08:47;;;;;;;3.33;1.80;;;6.00;99.90;;;;;;5004590;28;20217;-70
2021/03/28 02:11:27;;;;;;;4.10;1.53;;;6.10;99.90;;;;;;5014365;28;20222;-71
2021/03/28 02:14:30;;;;;;;3.87;1.87;;;6.10;99.90;;;;;;5014525;28;20213;-72
2021/03/28 02:17:20;;;;;;;5.30;1.90;;;6.10;99.90;;;;;;5012880;28;20237;-72
2021/03/28 02:20:28;;;;;;;5.40;1.80;;;6.00;99.90;;;;;;5014462;28;20187;-70
2021/03/28 02:23:23;;;;;;;3.17;1.80;;;5.90;99.90;;;;;;5008214;28;20226;-70
2021/03/28 02:26:22;;;;;;;2.77;1.50;;;5.90;99.90;;;;;;5012599;28;20205;-69
2021/03/28 02:28:57;;;;;;;3.10;1.77;;;5.90;99.90;;;;;;5014169;28;20233;-70
2021/03/28 02:31:28;;;;;;;4.17;1.73;;;5.90;99.90;;;;;;5014488;28;20538;-70
2021/03/28 02:34:17;;;;;;;4.67;1.87;;;5.90;99.90;;;;;;5015872;28;20179;-70
2021/03/28 02:37:16;;;;;;;3.83;1.57;;;5.90;99.90;;;;;;5015063;28;20222;-69
2021/03/28 02:39:49;;;;;;;2.87;1.60;;;5.90;99.90;;;;;;5005039;28;20189;-70
2021/03/28 02:42:33;;;;;;;3.23;1.53;;;5.80;99.90;;;;;;5013759;28;20193;-72
2021/03/28 02:45:06;;;;;;;3.47;1.57;;;5.80;99.90;;;;;;5013624;28;20204;-69
2021/03/28 02:47:51;;;;;;;3.63;1.90;;;5.80;99.90;;;;;;5013757;28;20672;-70
2021/03/28 02:50:28;;;;;;;5.00;1.93;;;5.70;99.90;;;;;;5013892;28;20179;-71
2021/03/28 02:53:19;;;;;;;3.83;1.83;;;5.70;99.90;;;;;;5013465;28;20229;-70
2021/03/28 02:56:00;;;;;;;3.63;1.80;;;5.60;99.90;;;;;;5013480;28;20576;-70
2021/03/28 02:58:53;;;;;;;3.57;1.80;;;5.60;99.90;;;;;;5013411;28;20188;-70
2021/03/28 03:02:01;;;;;;;5.00;1.90;;;5.60;99.90;;;;;;5012912;28;20655;-69
2021/03/28 03:04:56;;;;;;;5.53;1.73;;;5.50;99.90;;;;;;5013335;28;20254;-70
2021/03/28 03:07:21;;;;;;;4.37;1.60;;;5.50;99.90;;;;;;5008671;28;20277;-71
2021/03/28 03:10:37;;;;;;;3.27;1.90;;;5.40;99.90;;;;;;5008101;28;20224;-70
2021/03/28 03:13:45;;;;;;;3.80;1.57;;;5.30;99.90;;;;;;5010388;28;20194;-71
2021/03/28 03:16:31;;;;;;;2.23;1.40;;;5.30;99.90;;;;;;4996475;28;20933;-70
2021/03/28 03:19:57;;;;;;;4.00;1.50;;;5.20;99.90;;;;;;5013158;28;20173;-70
2021/03/28 03:22:59;;;;;;;4.67;1.53;;;5.20;99.90;;;;;;5001061;28;20210;-71
2021/03/28 03:25:31;;;;;;;3.10;1.53;;;5.20;99.90;;;;;;5012934;28;20229;-70
2021/03/28 03:28:15;;;;;;;4.23;2.17;;;5.20;99.90;;;;;;5012993;28;20705;-71
2021/03/28 03:31:09;;;;;;;2.20;1.47;;;5.10;99.90;;;;;;5012904;28;20176;-71
2021/03/28 03:34:12;;;;;;;3.23;1.20;;;5.10;99.90;;;;;;5006056;28;20525;-70
2021/03/28 03:36:58;;;;;;;5.43;1.47;;;5.00;99.90;;;;;;5012920;28;20189;-71
2021/03/28 03:39:51;;;;;;;2.50;1.40;;;5.00;99.90;;;;;;5010476;28;20639;-71
2021/03/28 03:42:55;;;;;;;3.73;1.57;;;4.90;99.90;;;;;;5013035;28;20188;-71
2021/03/28 03:45:26;;;;;;;3.07;1.67;;;4.90;99.90;;;;;;5012677;28;20291;-70
2021/03/28 03:48:18;;;;;;;2.80;1.60;;;5.00;99.90;;;;;;5012726;28;21015;-70
2021/03/28 03:50:59;;;;;;;2.50;1.60;;;4.90;99.90;;;;;;5012795;28;20182;-71
2021/03/28 03:53:39;;;;;;;4.80;1.63;;;4.80;99.90;;;;;;5012699;28;20168;-71
2021/03/28 03:56:17;;;;;;;3.70;1.43;;;4.90;99.90;;;;;;5014437;28;20197;-71
2021/03/28 03:59:21;;;;;;;3.67;1.77;;;4.70;99.90;;;;;;5016044;28;20182;-70
2021/03/28 04:02:02;;;;;;;3.27;1.40;;;4.70;99.90;;;;;;4993426;28;20229;-69
2021/03/28 04:04:50;;;;;;;3.83;1.70;;;4.70;99.90;;;;;;4991728;28;20201;-71
2021/03/28 04:07:42;;;;;;;3.40;1.53;;;4.50;99.90;;;;;;4973867;28;20723;-70
2021/03/28 04:10:22;;;;;;;2.80;1.60;;;4.50;99.90;;;;;;4971157;28;20186;-70
2021/03/28 04:13:23;;;;;;;3.20;1.27;;;4.50;99.90;;;;;;4992393;28;20185;-70
2021/03/28 04:16:10;;;;;;;1.73;1.20;;;4.40;99.90;;;;;;4984531;28;20220;-70
2021/03/28 04:18:42;;;;;;;1.83;1.37;;;4.40;99.90;;;;;;4983652;28;20254;-70
2021/03/28 04:21:26;;;;;;;2.63;1.43;;;4.50;99.90;;;;;;4981793;28;20193;-71
2021/03/28 04:24:20;;;;;;;5.27;1.30;;;4.40;99.90;;;;;;4982780;28;20183;-71
2021/03/28 04:27:11;;;;;;;2.80;1.80;;;4.30;99.90;;;;;;4976381;28;20205;-69
2021/03/28 04:29:44;;;;;;;4.57;2.03;;;4.30;99.90;;;;;;4978644;28;20185;-70
2021/03/28 04:32:48;;;;;;;2.90;1.67;;;4.30;99.90;;;;;;4980111;28;20197;-69
2021/03/28 04:35:43;;;;;;;3.97;1.50;;;4.20;99.90;;;;;;4976851;28;20570;-71
2021/03/28 04:38:17;;;;;;;4.87;1.80;;;4.20;99.90;;;;;;4977185;28;20221;-70
2021/03/28 04:41:01;;;;;;;3.23;1.47;;;4.20;99.90;;;;;;4979517;28;20182;-71
2021/03/28 04:43:51;;;;;;;4.20;1.40;;;4.10;99.90;;;;;;4978842;28;20232;-69
2021/03/28 04:47:10;;;;;;;2.73;1.43;;;4.10;99.90;;;;;;4986062;28;20634;-70
2021/03/28 04:50:18;;;;;;;5.47;1.33;;;4.10;99.90;;;;;;4951852;28;20198;-71
2021/03/28 04:53:06;;;;;;;5.33;1.67;;;4.10;99.90;;;;;;5005712;28;20189;-70
2021/03/28 04:55:37;;;;;;;6.80;1.80;;;4.10;99.90;;;;;;5013803;28;20294;-71
2021/03/28 04:58:09;;;;;;;3.27;1.70;;;4.00;99.90;;;;;;5014813;28;20188;-70
2021/03/28 05:00:59;;;;;;;3.30;1.60;;;3.90;99.90;;;;;;5013492;28;20187;-69
2021/03/28 05:03:34;;;;;;;3.00;1.87;;;3.90;99.90;;;;;;5015004;28;20181;-69
2021/03/28 05:06:26;;;;;;;4.47;1.53;;;3.90;99.90;;;;;;5014562;28;20211;-71
2021/03/28 05:08:55;;;;;;;4.40;1.77;;;3.90;99.90;;;;;;5003179;28;20284;-69
2021/03/28 05:11:33;;;;;;;4.87;1.63;;;3.90;99.90;;;;;;5014893;28;20262;-70
2021/03/28 05:14:27;;;;;;;4.10;1.60;;;3.90;99.90;;;;;;5014592;28;20188;-70
2021/03/28 05:17:19;;;;;;;3.30;1.33;;;3.80;99.90;;;;;;5014475;28;20288;-70
2021/03/28 05:20:01;;;;;;;4.97;1.93;;;3.70;99.90;;;;;;5014529;28;20280;-70
2021/03/28 05:22:48;;;;;;;5.10;1.70;;;3.50;99.90;;;;;;5014396;28;20180;-69
2021/03/28 05:25:29;;;;;;;2.90;1.33;;;3.50;99.90;;;;;;5013879;28;20710;-70
2021/03/28 05:28:32;;;;;;;4.17;1.57;;;3.50;99.90;;;;;;5014327;28;20175;-71
2021/03/28 05:31:22;;;;;;;4.33;1.77;;;3.50;99.90;;;;;;5014524;28;20171;-69
2021/03/28 05:34:12;;;;;;;2.30;1.60;;;3.50;99.90;;;;;;5014243;28;20179;-69
2021/03/28 05:36:52;;;;;;;6.57;1.87;;;3.60;99.90;;;;;;5014290;28;20183;-71
2021/03/28 05:39:41;;;;;;;5.20;2.33;;;3.70;99.90;;;;;;5014046;28;20212;-71
2021/03/28 05:42:25;;;;;;;3.40;1.63;;;3.60;99.90;;;;;;5010016;28;20195;-70
2021/03/28 05:45:18;;;;;;;4.60;1.93;;;3.50;99.90;;;;;;5010993;28;20206;-70
2021/03/28 05:48:06;;;;;;;5.23;2.03;;;3.40;99.90;;;;;;5009340;28;20179;-69
2021/03/28 05:50:39;;;;;;;2.30;1.53;;;3.30;99.90;;;;;;5013958;28;20186;-70
2021/03/28 05:53:21;;;;;;;7.13;1.80;;;3.20;99.90;;;;;;5013832;28;20172;-71
2021/03/28 05:55:56;;;;;;;6.07;1.80;;;3.20;99.90;;;;;;5012488;28;20199;-71
2021/03/28 05:58:42;;;;;;;2.47;1.50;;;3.10;99.90;;;;;;5014072;28;20174;-71
2021/03/28 06:01:29;;;;;;;4.93;1.90;;;3.10;99.90;;;;;;4996696;28;20241;-70
2021/03/28 06:04:28;;;;;;;3.70;1.60;;;3.10;99.90;;;;;;4991201;28;20182;-69
2021/03/28 06:07:09;;;;;;;5.27;2.20;;;3.20;99.90;;;;;;5013479;28;20688;-70
2021/03/28 06:10:08;;;;;;;3.30;1.70;;;3.30;99.90;;;;;;5007079;28;20185;-70
2021/03/28 06:13:12;;;;;;;4.10;2.27;;;3.50;99.90;;;;;;4993731;28;20541;-70
2021/03/28 06:15:43;;;;;;;3.53;1.70;;;3.50;99.90;;;;;;5013609;28;20214;-70
2021/03/28 06:18:21;;;;;;;4.60;1.60;;;3.60;99.90;;;;;;5013569;28;20658;-70
2021/03/28 06:20:52;;;;;;;3.83;1.90;;;3.70;99.90;;;;;;5008532;28;20640;-69
2021/03/28 06:23:30;;;;;;;3.73;1.43;;;3.80;99.90;;;;;;4978419;28;20558;-70
2021/03/28 06:26:33;;;;;;;5.43;2.40;;;3.90;99.90;;;;;;4988471;28;20206;-70
2021/03/28 06:29:27;;;;;;;3.57;1.67;;;3.90;99.90;;;;;;4992065;28;20182;-70
2021/03/28 06:31:53;;;;;;;4.53;2.03;;;4.00;99.90;;;;;;4993892;28;20176;-71
2021/03/28 06:34:31;;;;;;;2.87;1.83;;;4.00;99.90;;;;;;5010651;28;20286;-72
2021/03/28 06:37:33;;;;;;;5.00;1.97;;;4.10;99.90;;;;;;5011570;28;20260;-69
2021/03/28 06:40:19;;;;;;;3.27;1.60;;;4.10;99.90;;;;;;4995779;28;20195;-71
2021/03/28 06:43:26;;;;;;;3.17;1.50;;;4.20;99.90;;;;;;5006116;28;20185;-71
2021/03/28 06:46:16;;;;;;;6.17;2.13;;;4.20;99.90;;;;;;4999932;28;20212;-71
2021/03/28 06:49:19;;;;;;;3.50;1.90;;;4.30;99.90;;;;;;4994931;28;20174;-70
2021/03/28 06:52:07;;;;;;;4.20;2.17;;;4.40;99.90;;;;;;5000639;28;20615;-70
2021/03/28 06:54:51;;;;;;;4.83;2.20;;;4.40;99.90;;;;;;5002778;28;20208;-71
2021/03/28 06:57:31;;;;;;;5.23;1.90;;;4.50;99.90;;;;;;5012279;28;20187;-69
2021/03/28 07:00:34;;;;;;;3.63;1.90;;;4.50;99.90;;;;;;5013445;28;20185;-70
2021/03/28 07:03:14;;;;;;;2.60;1.70;;;4.60;99.90;;;;;;5013624;28;20176;-70
2021/03/28 07:05:57;;;;;;;6.97;2.63;;;4.70;99.90;;;;;;5004542;28;20287;-70
2021/03/28 07:08:58;;;;;;;4.13;2.07;;;4.70;99.90;;;;;;5004591;28;20718;-70
2021/03/28 07:11:42;;;;;;;5.80;2.20;;;4.90;99.90;;;;;;5012962;28;20184;-70
2021/03/28 07:14:29;;;;;;;4.27;1.93;;;4.90;99.90;;;;;;5004286;28;20188;-70
2021/03/28 07:17:13;;;;;;;5.97;1.90;;;5.00;99.90;;;;;;4998923;28;20707;-70
2021/03/28 07:20:24;;;;;;;4.63;1.80;;;5.10;99.90;;;;;;4994991;28;20185;-70
2021/03/28 07:23:06;;;;;;;7.07;2.33;;;5.20;99.90;;;;;;4987706;28;20267;-70
2021/03/28 07:25:53;;;;;;;4.83;2.57;;;5.40;99.90;;;;;;5012913;28;20227;-71
2021/03/28 07:29:03;;;;;;;4.37;2.47;;;5.40;99.90;;;;;;4995375;28;20513;-70
2021/03/28 07:32:13;;;;;;;7.63;3.20;;;5.40;99.90;;;;;;4991376;28;20171;-70
2021/03/28 07:35:02;;;;;;;5.83;2.60;;;5.50;99.90;;;;;;5012154;28;20205;-71
2021/03/28 07:37:37;;;;;;;5.83;2.63;;;5.50;99.90;;;;;;5012841;28;20191;-71
2021/03/28 07:40:27;;;;;;;6.27;2.43;;;5.60;99.90;;;;;;5013010;28;20231;-70
2021/03/28 07:43:21;;;;;;;6.27;2.80;;;5.70;99.90;;;;;;5012885;28;20663;-71
2021/03/28 07:45:50;;;;;;;7.10;2.60;;;5.80;99.90;;;;;;5011569;28;20218;-70
2021/03/28 07:49:12;;;;;;;4.93;2.87;;;5.90;99.90;;;;;;5012508;28;20173;-72
2021/03/28 07:51:56;;;;;;;4.40;2.40;;;6.10;99.90;;;;;;5005225;28;20230;-70
2021/03/28 07:54:59;;;;;;;7.33;2.57;;;6.20;99.90;;;;;;5012756;28;20201;-70
2021/03/28 07:57:45;;;;;;;6.13;2.90;;;6.30;99.90;;;;;;5012944;28;20185;-70
2021/03/28 08:00:41;;;;;;;6.23;3.60;;;6.30;99.90;;;;;;5012625;28;20190;-70
2021/03/28 08:03:22;;;;;;;10.77;3.23;;;6.50;99.90;;;;;;5012540;28;20179;-70
2021/03/28 08:06:25;;;;;;;10.30;5.17;;;6.60;99.90;;;;;;4995840;28;20256;-69
2021/03/28 08:08:57;;;;;;;9.13;3.30;;;6.80;99.90;;;;;;4995459;28;20229;-71
2021/03/28 08:11:28;;;;;;;5.10;2.60;;;6.90;99.90;;;;;;4991467;28;20708;-70
2021/03/28 08:14:05;;;;;;;5.77;2.80;;;7.10;99.90;;;;;;4996566;28;20242;-71
2021/03/28 08:16:54;;;;;;;5.93;2.43;;;7.20;99.90;;;;;;4999940;28;20183;-70
2021/03/28 08:19:57;;;;;;;4.30;2.70;;;7.20;99.90;;;;;;5012885;28;20209;-70
2021/03/28 08:22:37;;;;;;;4.37;2.43;;;7.30;99.90;;;;;;4994878;28;20287;-71
2021/03/28 08:25:41;;;;;;;5.00;2.50;;;7.30;99.90;;;;;;5013204;28;20256;-69
2021/03/28 08:28:28;;;;;;;4.23;2.03;;;7.30;99.90;;;;;;4975770;28;20183;-72
2021/03/28 08:31:18;;;;;;;3.30;2.27;;;7.40;99.90;;;;;;4986146;28;20251;-70
2021/03/28 08:34:02;;;;;;;3.37;2.30;;;7.40;99.90;;;;;;5013014;28;20190;-70
2021/03/28 08:36:53;;;;;;;5.93;2.50;;;7.40;99.90;;;;;;5012536;28;20175;-70
2021/03/28 08:39:42;;;;;;;4.27;2.47;;;7.50;99.90;;;;;;5012700;28;20194;-69
2021/03/28 08:42:22;;;;;;;3.00;2.23;;;7.60;99.90;;;;;;4992539;28;20202;-70
2021/03/28 08:45:07;;;;;;;3.97;2.60;;;7.70;99.90;;;;;;5012091;28;20206;-69
2021/03/28 08:48:10;;;;;;;4.00;2.20;;;7.80;99.90;;;;;;5012117;28;20285;-71
2021/03/28 08:50:56;;;;;;;3.80;1.70;;;7.90;99.90;;;;;;5012603;28;20175;-69
2021/03/28 08:53:55;;;;;;;3.97;1.93;;;8.10;99.90;;;;;;5012213;28;20688;-69
2021/03/28 08:56:27;;;;;;;2.63;1.60;;;8.20;99.90;;;;;;5005816;28;20250;-75
2021/03/28 08:59:10;;;;;;;5.27;2.33;;;8.20;99.90;;;;;;5012906;28;20215;-76
2021/03/28 09:02:00;;;;;;;2.90;1.90;;;8.10;99.90;;;;;;5013000;28;20180;-76
2021/03/28 09:04:47;;;;;;;6.43;2.10;;;8.20;99.90;;;;;;5015531;28;20247;-77
2021/03/28 09:07:33;;;;;;;5.20;2.27;;;8.30;99.90;;;;;;5013526;28;20206;-77
2021/03/28 09:10:33;;;;;;;4.67;2.03;;;8.40;99.90;;;;;;5012382;28;20200;-77
2021/03/28 09:13:39;;;;;;;4.33;1.50;;;8.60;99.90;;;;;;5014763;28;20226;-78
2021/03/28 09:16:36;;;;;;;4.10;1.80;;;8.60;99.90;;;;;;5015726;28;20215;-77
2021/03/28 09:19:35;;;;;;;3.70;2.10;;;8.80;99.90;;;;;;5014666;28;20177;-77
2021/03/28 09:22:20;;;;;;;4.10;2.50;;;8.90;99.90;;;;;;5015580;28;20203;-77
2021/03/28 09:24:59;;;;;;;3.23;1.60;;;8.90;99.90;;;;;;5015470;28;20284;-77
2021/03/28 09:27:34;;;;;;;3.60;1.60;;;8.80;99.90;;;;;;5015181;28;20202;-76
2021/03/28 09:30:21;;;;;;;3.77;1.90;;;8.90;99.90;;;;;;5015659;28;20230;-77
2021/03/28 09:33:05;;;;;;;4.80;2.03;;;8.90;99.90;;;;;;5015347;28;20178;-77
2021/03/28 09:35:50;;;;;;;4.93;2.17;;;9.00;99.90;;;;;;5015404;28;20194;-76
2021/03/28 09:38:33;;;;;;;5.57;2.10;;;9.10;99.90;;;;;;5015329;28;20181;-76
2021/03/28 09:41:09;;;;;;;4.43;1.83;;;9.20;99.90;;;;;;5015397;28;20178;-76
2021/03/28 09:44:03;;;;;;;4.70;1.67;;;9.20;99.90;;;;;;5008382;28;20260;-75
2021/03/28 09:46:50;;;;;;;4.60;1.83;;;9.20;99.90;;;;;;5014104;28;20224;-76
2021/03/28 09:49:37;;;;;;;5.83;1.50;;;9.30;99.90;;;;;;5015047;28;20177;-76
2021/03/28 09:52:30;;;;;;;3.90;1.70;;;9.50;99.90;;;;;;5013911;28;20182;-76
2021/03/28 09:55:37;;;;;;;3.67;2.00;;;9.70;99.90;;;;;;5013482;28;20193;-76
2021/03/28 09:58:18;;;;;;;6.33;2.17;;;9.70;99.90;;;;;;5014870;28;20173;-75
2021/03/28 10:01:20;;;;;;;4.87;1.73;;;9.80;99.90;;;;;;5014733;28;20327;-76
2021/03/28 10:03:54;;;;;;;4.83;1.60;;;9.90;99.90;;;;;;5014917;28;20173;-77
2021/03/28 10:06:22;;;;;;;3.17;1.87;;;10.10;99.90;;;;;;5014750;28;20288;-77
2021/03/28 10:09:14;;;;;;;5.47;1.90;;;10.30;99.90;;;;;;5006721;28;20179;-76
2021/03/28 10:11:45;;;;;;;3.93;1.87;;;10.60;99.90;;;;;;5014591;28;20236;-76
2021/03/28 10:14:31;;;;;;;5.17;1.93;;;10.60;99.90;;;;;;5014604;28;20209;-77
2021/03/28 10:17:38;;;;;;;5.90;2.03;;;10.60;99.90;;;;;;5011279;28;20744;-75
2021/03/28 10:20:31;;;;;;;5.97;1.77;;;10.60;99.90;;;;;;5014396;28;20268;-76
2021/03/28 10:22:57;;;;;;;5.47;2.27;;;10.70;99.90;;;;;;5014721;28;20229;-77
2021/03/28 10:25:39;;;;;;;8.47;1.90;;;10.60;99.90;;;;;;5014099;28;20209;-77
2021/03/28 10:28:33;;;;;;;5.53;2.40;;;10.80;99.90;;;;;;5014345;28;20227;-76
2021/03/28 10:31:30;;;;;;;4.63;2.60;;;10.80;99.90;;;;;;5014146;28;20540;-76
2021/03/28 10:34:24;;;;;;;5.07;2.40;;;11.10;99.90;;;;;;5014218;28;20229;-76
2021/03/28 10:37:11;;;;;;;6.50;2.17;;;11.20;99.90;;;;;;5014258;28;20178;-75
2021/03/28 10:39:54;;;;;;;4.53;1.80;;;11.30;99.90;;;;;;5014055;28;20174;-77
2021/03/28 10:42:31;;;;;;;4.03;1.67;;;11.40;99.90;;;;;;5014969;28;20179;-77
2021/03/28 10:45:25;;;;;;;3.10;1.50;;;11.60;99.90;;;;;;5014114;28;20205;-77
2021/03/28 10:48:19;;;;;;;4.17;1.83;;;11.50;99.90;;;;;;5013972;28;20206;-77
2021/03/28 10:51:15;;;;;;;4.60;1.80;;;11.50;99.90;;;;;;5013908;28;20179;-76
2021/03/28 10:54:15;;;;;;;3.37;1.90;;;11.60;99.90;;;;;;5013885;28;20171;-77
2021/03/28 10:57:15;;;;;;;4.97;1.90;;;11.60;99.90;;;;;;5012673;28;20675;-76
2021/03/28 11:00:05;;;;;;;4.93;2.07;;;11.90;99.90;;;;;;5013757;28;20664;-76
2021/03/28 11:03:15;;;;;;;3.40;1.90;;;12.10;99.90;;;;;;5012812;28;20648;-76
2021/03/28 11:06:12;;;;;;;4.57;1.70;;;12.20;99.90;;;;;;5008951;28;20265;-77
2021/03/28 11:08:37;;;;;;;8.30;1.90;;;12.40;99.90;;;;;;5005098;28;20179;-76
2021/03/28 11:11:41;;;;;;;3.70;1.73;;;12.50;99.90;;;;;;5012639;28;20218;-76
2021/03/28 11:14:29;;;;;;;5.50;2.70;;;12.50;99.90;;;;;;5013308;28;20218;-76
2021/03/28 11:17:14;;;;;;;4.10;1.50;;;12.60;99.90;;;;;;5008655;28;20273;-76
2021/03/28 11:20:00;;;;;;;3.60;1.60;;;12.70;99.90;;;;;;5013630;28;20186;-76
2021/03/28 11:22:47;;;;;;;4.13;2.30;;;12.70;99.90;;;;;;5012886;28;20186;-76
2021/03/28 11:25:23;;;;;;;7.83;2.97;;;12.80;99.90;;;;;;5013306;28;20203;-77
2021/03/28 11:28:25;;;;;;;4.33;2.03;;;13.00;99.90;;;;;;5011939;28;20182;-76
2021/03/28 11:31:09;;;;;;;4.27;1.60;;;13.30;99.90;;;;;;5013158;28;20185;-76
2021/03/28 11:33:39;;;;;;;4.00;1.50;;;13.40;99.90;;;;;;5013353;28;20571;-76
2021/03/28 11:36:22;;;;;;;4.03;1.93;;;13.40;99.90;;;;;;5012921;28;20199;-76
2021/03/28 11:39:12;;;;;;;3.37;2.00;;;13.30;99.90;;;;;;5013358;28;20213;-77
2021/03/28 11:42:14;;;;;;;2.43;1.40;;;13.40;99.90;;;;;;5013133;28;20545;-76
2021/03/28 11:45:04;;;;;;;3.23;2.00;;;13.70;99.90;;;;;;5013133;28;20198;-76
2021/03/28 11:47:51;;;;;;;3.30;1.73;;;13.60;99.90;;;;;;5013024;28;20294;-75
2021/03/28 11:50:17;;;;;;;3.50;2.00;;;13.70;99.90;;;;;;5011196;28;20183;-76
2021/03/28 11:52:48;;;;;;;8.13;2.30;;;13.80;99.90;;;;;;5006610;28;20556;-77
2021/03/28 11:55:25;;;;;;;4.13;2.87;;;13.70;99.90;;;;;;5012974;28;20242;-75
2021/03/28 11:58:28;;;;;;;3.10;2.00;;;13.70;99.90;;;;;;5012909;28;20195;-76
2021/03/28 12:01:02;;;;;;;2.30;1.53;;;13.90;99.90;;;;;;5012935;28;20191;-77
2021/03/28 12:03:32;;;;;;;5.27;2.00;;;13.80;99.90;;;;;;5014214;28;20181;-77
2021/03/28 12:06:05;;;;;;;3.93;1.70;;;13.80;99.90;;;;;;5014883;28;20222;-77
2021/03/28 12:08:36;;;;;;;4.03;1.73;;;13.70;99.90;;;;;;5005340;28;20229;-76
2021/03/28 12:11:39;;;;;;;4.00;2.30;;;13.80;99.90;;;;;;5012942;28;20175;-77
2021/03/28 12:14:33;;;;;;;4.17;1.60;;;13.90;99.90;;;;;;5011269;28;20241;-76
2021/03/28 12:17:11;;;;;;;3.03;1.50;;;14.10;99.90;;;;;;5013057;28;20229;-76
2021/03/28 12:20:01;;;;;;;4.23;1.23;;;14.30;99.90;;;;;;5013055;28;20262;-77
2021/03/28 12:22:43;;;;;;;3.10;1.50;;;14.50;99.90;;;;;;5012769;28;20176;-76
2021/03/28 12:25:15;;;;;;;3.97;1.77;;;14.60;99.10;;;;;;5012582;28;20285;-77
2021/03/28 12:27:44;;;;;;;5.03;1.70;;;14.40;98.20;;;;;;5012507;28;20199;-77
2021/03/28 12:30:38;;;;;;;2.87;1.30;;;14.30;98.90;;;;;;5012458;28;20680;-77
2021/03/28 12:33:12;;;;;;;3.07;1.43;;;14.50;97.80;;;;;;5012725;28;20175;-76
2021/03/28 12:35:47;;;;;;;2.77;1.60;;;14.60;99.00;;;;;;5015703;28;20209;-77
2021/03/28 12:38:32;;;;;;;1.67;1.40;;;14.60;99.30;;;;;;5015160;28;20185;-77
2021/03/28 12:41:11;;;;;;;2.50;1.63;;;14.80;99.90;;;;;;5014841;28;20966;-75
2021/03/28 12:43:45;;;;;;;2.57;1.70;;;14.90;99.10;;;;;;5015783;28;20569;-76
2021/03/28 12:46:26;;;;;;;3.60;1.80;;;15.00;99.90;;;;;;5016041;28;20219;-77
2021/03/28 12:49:20;;;;;;;2.70;1.30;;;15.10;99.70;;;;;;5016287;28;20176;-76
2021/03/28 12:52:01;;;;;;;3.00;1.63;;;15.00;98.80;;;;;;5013948;28;20187;-77
2021/03/28 12:54:30;;;;;;;4.53;2.23;;;15.10;99.90;;;;;;5016162;28;20214;-77
2021/03/28 12:57:01;;;;;;;4.80;2.80;;;15.00;99.30;;;;;;5016171;28;20238;-74
2021/03/28 12:59:29;;;;;;;3.23;2.00;;;15.10;99.40;;;;;;5014793;28;20649;-77
2021/03/28 13:02:09;;;;;;;4.63;2.07;;;15.10;99.90;;;;;;5014627;28;20767;-76
2021/03/28 13:04:37;;;;;;;2.90;1.77;;;15.20;98.50;;;;;;5016716;28;20296;-77
2021/03/28 13:07:04;;;;;;;2.43;1.73;;;15.30;98.80;;;;;;5017447;28;20657;-77
2021/03/28 13:09:38;;;;;;;2.83;1.60;;;15.40;97.80;;;;;;5008960;28;20217;-75
2021/03/28 13:12:10;;;;;;;3.57;1.83;;;15.50;97.80;;;;;;5015610;28;20179;-75
2021/03/28 13:14:40;;;;;;;3.07;2.67;;;15.50;97.30;;;;;;5016065;28;20218;-77
2021/03/28 13:17:17;;;;;;;4.37;2.20;;;15.40;97.30;;;;;;5014456;28;20659;-77
2021/03/28 13:19:50;;;;;;;3.23;1.50;;;15.60;97.00;;;;;;5014404;28;20664;-77
2021/03/28 13:22:36;;;;;;;2.10;1.60;;;15.60;96.70;;;;;;5015521;28;20189;-76
2021/03/28 13:25:29;;;;;;;4.93;1.73;;;15.50;96.50;;;;;;5012754;28;20261;-76
2021/03/28 13:28:00;;;;;;;2.77;1.40;;;15.40;96.40;;;;;;4988264;28;20183;-76
2021/03/28 13:30:35;;;;;;;2.97;1.67;;;15.40;96.90;;;;;;5015452;28;20210;-75
2021/03/28 13:33:27;;;;;;;2.47;1.23;;;15.60;96.10;;;;;;5015305;28;20714;-76
2021/03/28 13:35:56;;;;;;;4.27;1.60;;;15.60;94.60;;;;;;5015335;28;20219;-76
2021/03/28 13:38:24;;;;;;;2.37;1.30;;;15.50;96.70;;;;;;5015260;28;20198;-77
2021/03/28 13:40:56;;;;;;;2.27;1.50;;;15.60;94.20;;;;;;5015263;28;20183;-75
2021/03/28 13:43:29;;;;;;;2.30;1.27;;;15.60;95.30;;;;;;5015193;28;20546;-77
2021/03/28 13:46:13;;;;;;;2.50;1.23;;;15.60;96.30;;;;;;5014660;28;20202;-77
2021/03/28 13:48:43;;;;;;;4.87;1.50;;;15.70;94.80;;;;;;5013945;28;20171;-77
2021/03/28 13:51:20;;;;;;;3.00;1.53;;;15.80;96.60;;;;;;5013530;28;20183;-76
2021/03/28 13:53:56;;;;;;;4.00;1.50;;;15.80;96.30;;;;;;5015317;28;20173;-76
2021/03/28 13:56:21;;;;;;;1.37;1.20;;;15.60;95.40;;;;;;5014685;28;20198;-76
2021/03/28 13:58:59;;;;;;;2.93;1.40;;;15.60;94.90;;;;;;5013824;28;20241;-77
2021/03/28 14:01:34;;;;;;;3.13;1.40;;;15.50;92.70;;;;;;5014836;28;20201;-76
2021/03/28 14:04:18;;;;;;;2.47;1.30;;;15.50;93.00;;;;;;5014742;28;20179;-76
2021/03/28 14:06:47;;;;;;;1.97;1.40;;;15.40;93.70;;;;;;5014669;28;20759;-76
2021/03/28 14:09:29;;;;;;;3.13;1.53;;;15.50;94.10;;;;;;5006568;28;20595;-77
2021/03/28 14:11:59;;;;;;;2.67;1.43;;;15.60;94.70;;;;;;5013323;28;20171;-76
2021/03/28 14:14:36;;;;;;;3.27;1.70;;;15.60;94.10;;;;;;5014247;28;20692;-76
2021/03/28 14:17:28;;;;;;;3.60;2.40;;;15.60;94.60;;;;;;5014837;28;20178;-77
2021/03/28 14:20:35;;;;;;;1.97;1.53;;;15.70;94.30;;;;;;5008477;28;20229;-76
2021/03/28 14:23:13;;;;;;;2.50;1.37;;;15.90;93.60;;;;;;5014246;28;20261;-76
2021/03/28 14:26:16;;;;;;;2.33;1.50;;;15.80;93.70;;;;;;5014359;28;20199;-76
2021/03/28 14:28:48;;;;;;;2.33;1.53;;;15.80;94.60;;;;;;5014250;28;20205;-75
2021/03/28 14:31:30;;;;;;;1.30;1.20;;;15.90;92.40;;;;;;5014954;28;20167;-76